sensor_id;sensor_type;location;lat;lon;timestamp;temperature;humidity
57833;DHT22;43667;53.036;6.740;2023-07-20T00:01:35;15.40;99.90
57833;DHT22;43667;53.036;6.740;2023-07-20T00:04:01;15.40;99.90
57833;DHT22;43667;53.036;6.740;2023-07-20T00:06:27;15.40;99.90
57833;DHT22;43667;53.036;6.740;2023-07-20T00:08:53;15.40;99.90
57833;DHT22;43667;53.036;6.740;2023-07-20T00:11:19;15.40;99.90
57833;DHT22;43667;53.036;6.740;2023-07-20T00:13:45;15.50;99.90
57833;DHT22;43667;53.036;6.740;2023-07-20T00:16:10;15.70;99.90
57833;DHT22;43667;53.036;6.740;2023-07-20T00:18:36;15.40;99.90
57833;DHT22;43667;53.036;6.740;2023-07-20T00:21:01;15.30;99.90
57833;DHT22;43667;53.036;6.740;2023-07-20T00:23:27;15.30;99.90
57833;DHT22;43667;53.036;6.740;2023-07-20T00:25:53;15.30;99.90
57833;DHT22;43667;53.036;6.740;2023-07-20T00:28:19;15.30;99.90
57833;DHT22;43667;53.036;6.740;2023-07-20T00:30:45;15.20;99.90
57833;DHT22;43667;53.036;6.740;2023-07-20T00:33:11;15.20;99.90
57833;DHT22;43667;53.036;6.740;2023-07-20T00:35:38;15.10;99.90
57833;DHT22;43667;53.036;6.740;2023-07-20T00:38:04;15.10;99.90
57833;DHT22;43667;53.036;6.740;2023-07-20T00:40:39;15.10;99.90
57833;DHT22;43667;53.036;6.740;2023-07-20T00:43:05;15.00;99.90
57833;DHT22;43667;53.036;6.740;2023-07-20T00:45:31;15.00;99.90
57833;DHT22;43667;53.036;6.740;2023-07-20T00:47:58;15.00;99.90
57833;DHT22;43667;53.036;6.740;2023-07-20T00:50:24;14.90;99.90
57833;DHT22;43667;53.036;6.740;2023-07-20T00:52:51;14.90;99.90
57833;DHT22;43667;53.036;6.740;2023-07-20T00:55:18;15.00;99.90
57833;DHT22;43667;53.036;6.740;2023-07-20T00:57:44;15.00;99.90
57833;DHT22;43667;53.036;6.740;2023-07-20T01:00:10;15.00;99.90
57833;DHT22;43667;53.036;6.740;2023-07-20T01:02:36;14.80;99.90
57833;DHT22;43667;53.036;6.740;2023-07-20T01:05:03;14.90;99.90
57833;DHT22;43667;53.036;6.740;2023-07-20T01:10:21;14.70;99.90
57833;DHT22;43667;53.036;6.740;2023-07-20T01:15:18;15.00;99.90
57833;DHT22;43667;53.036;6.740;2023-07-20T01:17:44;14.80;99.90
57833;DHT22;43667;53.036;6.740;2023-07-20T01:20:15;14.80;99.90
57833;DHT22;43667;53.036;6.740;2023-07-20T01:25:49;14.50;99.90
57833;DHT22;43667;53.036;6.740;2023-07-20T01:31:30;14.40;99.90
57833;DHT22;43667;53.036;6.740;2023-07-20T01:34:00;14.40;99.90
57833;DHT22;43667;53.036;6.740;2023-07-20T01:36:28;14.40;99.90
57833;DHT22;43667;53.036;6.740;2023-07-20T01:38:54;14.20;99.90
57833;DHT22;43667;53.036;6.740;2023-07-20T01:41:21;14.20;99.90
57833;DHT22;43667;53.036;6.740;2023-07-20T01:43:47;14.10;99.90
57833;DHT22;43667;53.036;6.740;2023-07-20T01:46:12;14.00;99.90
57833;DHT22;43667;53.036;6.740;2023-07-20T01:48:38;14.10;99.90
57833;DHT22;43667;53.036;6.740;2023-07-20T01:51:04;13.90;99.90
57833;DHT22;43667;53.036;6.740;2023-07-20T01:53:29;13.80;99.90
57833;DHT22;43667;53.036;6.740;2023-07-20T01:55:56;13.70;99.90
57833;DHT22;43667;53.036;6.740;2023-07-20T02:00:50;13.70;99.90
57833;DHT22;43667;53.036;6.740;2023-07-20T02:05:42;13.60;99.90
57833;DHT22;43667;53.036;6.740;2023-07-20T02:08:08;13.70;99.90
57833;DHT22;43667;53.036;6.740;2023-07-20T02:10:34;13.60;99.90
57833;DHT22;43667;53.036;6.740;2023-07-20T02:12:59;13.50;99.90
57833;DHT22;43667;53.036;6.740;2023-07-20T02:15:25;13.50;99.90
57833;DHT22;43667;53.036;6.740;2023-07-20T02:17:51;13.50;99.90
57833;DHT22;43667;53.036;6.740;2023-07-20T02:20:16;13.70;99.90
57833;DHT22;43667;53.036;6.740;2023-07-20T02:22:43;13.50;99.90
57833;DHT22;43667;53.036;6.740;2023-07-20T02:25:09;13.40;99.90
57833;DHT22;43667;53.036;6.740;2023-07-20T02:27:34;13.40;99.90
57833;DHT22;43667;53.036;6.740;2023-07-20T02:30:00;13.40;99.90
57833;DHT22;43667;53.036;6.740;2023-07-20T02:32:26;13.30;99.90
57833;DHT22;43667;53.036;6.740;2023-07-20T02:34:51;13.20;99.90
57833;DHT22;43667;53.036;6.740;2023-07-20T02:37:17;13.30;99.90
57833;DHT22;43667;53.036;6.740;2023-07-20T02:39:43;13.20;99.90
57833;DHT22;43667;53.036;6.740;2023-07-20T02:42:08;13.30;99.90
57833;DHT22;43667;53.036;6.740;2023-07-20T02:51:54;12.80;99.90
57833;DHT22;43667;53.036;6.740;2023-07-20T02:54:21;13.00;99.90
57833;DHT22;43667;53.036;6.740;2023-07-20T02:56:46;12.90;99.90
57833;DHT22;43667;53.036;6.740;2023-07-20T02:59:12;12.80;99.90
57833;DHT22;43667;53.036;6.740;2023-07-20T03:01:37;12.80;99.90
57833;DHT22;43667;53.036;6.740;2023-07-20T03:04:03;12.80;99.90
57833;DHT22;43667;53.036;6.740;2023-07-20T03:06:29;12.70;99.90
57833;DHT22;43667;53.036;6.740;2023-07-20T03:08:55;12.70;99.90
57833;DHT22;43667;53.036;6.740;2023-07-20T03:11:21;12.60;99.90
57833;DHT22;43667;53.036;6.740;2023-07-20T04:02:47;12.30;99.90
57833;DHT22;43667;53.036;6.740;2023-07-20T04:05:12;12.30;99.90
57833;DHT22;43667;53.036;6.740;2023-07-20T04:07:38;12.20;99.90
57833;DHT22;43667;53.036;6.740;2023-07-20T04:10:04;12.20;99.90
57833;DHT22;43667;53.036;6.740;2023-07-20T04:12:30;12.20;99.90
57833;DHT22;43667;53.036;6.740;2023-07-20T04:14:55;12.20;99.90
57833;DHT22;43667;53.036;6.740;2023-07-20T04:17:21;12.10;99.90
57833;DHT22;43667;53.036;6.740;2023-07-20T04:19:46;12.10;99.90
57833;DHT22;43667;53.036;6.740;2023-07-20T04:29:34;12.20;99.90
57833;DHT22;43667;53.036;6.740;2023-07-20T04:31:59;12.40;99.90
57833;DHT22;43667;53.036;6.740;2023-07-20T04:49:06;12.40;99.90
57833;DHT22;43667;53.036;6.740;2023-07-20T04:51:32;12.50;99.90
57833;DHT22;43667;53.036;6.740;2023-07-20T04:53:58;12.50;99.90
57833;DHT22;43667;53.036;6.740;2023-07-20T04:56:24;12.60;99.90
57833;DHT22;43667;53.036;6.740;2023-07-20T04:58:50;12.60;99.90
57833;DHT22;43667;53.036;6.740;2023-07-20T05:01:15;12.60;99.90
57833;DHT22;43667;53.036;6.740;2023-07-20T05:03:41;12.70;99.90
57833;DHT22;43667;53.036;6.740;2023-07-20T05:06:06;12.70;99.90
57833;DHT22;43667;53.036;6.740;2023-07-20T05:08:32;12.60;99.90
57833;DHT22;43667;53.036;6.740;2023-07-20T05:10:59;12.70;99.90
57833;DHT22;43667;53.036;6.740;2023-07-20T05:13:25;12.80;99.90
57833;DHT22;43667;53.036;6.740;2023-07-20T05:15:52;12.90;99.90
57833;DHT22;43667;53.036;6.740;2023-07-20T05:18:18;12.90;99.90
57833;DHT22;43667;53.036;6.740;2023-07-20T05:20:48;13.00;99.90
57833;DHT22;43667;53.036;6.740;2023-07-20T05:23:14;13.10;99.90
57833;DHT22;43667;53.036;6.740;2023-07-20T05:25:40;13.20;99.90
57833;DHT22;43667;53.036;6.740;2023-07-20T05:28:06;13.30;99.90
57833;DHT22;43667;53.036;6.740;2023-07-20T05:30:32;13.50;99.90
57833;DHT22;43667;53.036;6.740;2023-07-20T05:32:57;13.60;99.90
57833;DHT22;43667;53.036;6.740;2023-07-20T05:35:23;13.80;99.90
57833;DHT22;43667;53.036;6.740;2023-07-20T05:37:49;14.00;99.90
57833;DHT22;43667;53.036;6.740;2023-07-20T05:40:15;14.20;99.90
57833;DHT22;43667;53.036;6.740;2023-07-20T05:42:45;14.30;99.90
57833;DHT22;43667;53.036;6.740;2023-07-20T05:45:12;14.40;99.90
57833;DHT22;43667;53.036;6.740;2023-07-20T05:47:37;14.40;99.90
57833;DHT22;43667;53.036;6.740;2023-07-20T05:50:03;14.50;99.90
57833;DHT22;43667;53.036;6.740;2023-07-20T05:52:29;14.60;99.90
57833;DHT22;43667;53.036;6.740;2023-07-20T05:54:55;14.70;99.90
57833;DHT22;43667;53.036;6.740;2023-07-20T05:57:21;14.70;99.90
57833;DHT22;43667;53.036;6.740;2023-07-20T05:59:46;14.80;99.90
57833;DHT22;43667;53.036;6.740;2023-07-20T06:02:12;14.90;99.90
57833;DHT22;43667;53.036;6.740;2023-07-20T06:04:40;15.00;99.90
57833;DHT22;43667;53.036;6.740;2023-07-20T06:07:05;15.10;99.90
57833;DHT22;43667;53.036;6.740;2023-07-20T06:09:33;15.10;99.90
57833;DHT22;43667;53.036;6.740;2023-07-20T06:11:58;15.10;99.90
57833;DHT22;43667;53.036;6.740;2023-07-20T06:14:24;15.20;99.90
57833;DHT22;43667;53.036;6.740;2023-07-20T06:16:50;15.40;99.90
57833;DHT22;43667;53.036;6.740;2023-07-20T06:19:15;15.50;99.90
57833;DHT22;43667;53.036;6.740;2023-07-20T06:21:41;15.70;99.90
57833;DHT22;43667;53.036;6.740;2023-07-20T06:24:07;15.80;99.90
57833;DHT22;43667;53.036;6.740;2023-07-20T06:26:33;16.10;99.90
57833;DHT22;43667;53.036;6.740;2023-07-20T06:29:07;16.20;99.90
57833;DHT22;43667;53.036;6.740;2023-07-20T06:31:34;16.40;99.90
57833;DHT22;43667;53.036;6.740;2023-07-20T06:33:59;16.60;99.90
57833;DHT22;43667;53.036;6.740;2023-07-20T06:36:26;16.70;99.90
57833;DHT22;43667;53.036;6.740;2023-07-20T06:38:52;16.90;99.90
57833;DHT22;43667;53.036;6.740;2023-07-20T06:41:18;17.00;99.90
57833;DHT22;43667;53.036;6.740;2023-07-20T06:43:44;17.20;99.90
57833;DHT22;43667;53.036;6.740;2023-07-20T06:46:10;17.30;99.90
57833;DHT22;43667;53.036;6.740;2023-07-20T06:48:36;17.50;99.90
57833;DHT22;43667;53.036;6.740;2023-07-20T06:51:01;17.60;99.90
57833;DHT22;43667;53.036;6.740;2023-07-20T06:53:28;17.80;99.90
57833;DHT22;43667;53.036;6.740;2023-07-20T06:55:54;18.00;99.90
57833;DHT22;43667;53.036;6.740;2023-07-20T06:58:19;18.20;99.90
57833;DHT22;43667;53.036;6.740;2023-07-20T07:00:47;18.30;99.90
57833;DHT22;43667;53.036;6.740;2023-07-20T07:03:12;18.40;99.90
57833;DHT22;43667;53.036;6.740;2023-07-20T07:05:38;18.50;99.90
57833;DHT22;43667;53.036;6.740;2023-07-20T07:08:07;18.70;99.90
57833;DHT22;43667;53.036;6.740;2023-07-20T07:10:35;18.90;99.90
57833;DHT22;43667;53.036;6.740;2023-07-20T07:13:01;19.00;99.90
57833;DHT22;43667;53.036;6.740;2023-07-20T07:15:27;19.10;99.90
57833;DHT22;43667;53.036;6.740;2023-07-20T07:17:53;19.30;99.90
57833;DHT22;43667;53.036;6.740;2023-07-20T07:20:19;19.40;99.90
57833;DHT22;43667;53.036;6.740;2023-07-20T07:22:44;19.60;99.90
57833;DHT22;43667;53.036;6.740;2023-07-20T07:25:10;19.80;99.90
57833;DHT22;43667;53.036;6.740;2023-07-20T07:27:36;20.00;99.90
57833;DHT22;43667;53.036;6.740;2023-07-20T07:30:05;20.20;99.90
57833;DHT22;43667;53.036;6.740;2023-07-20T07:32:31;20.30;99.90
57833;DHT22;43667;53.036;6.740;2023-07-20T07:34:57;20.40;99.90
57833;DHT22;43667;53.036;6.740;2023-07-20T07:37:24;20.50;99.90
57833;DHT22;43667;53.036;6.740;2023-07-20T07:39:49;20.60;99.90
57833;DHT22;43667;53.036;6.740;2023-07-20T07:42:15;20.80;99.90
57833;DHT22;43667;53.036;6.740;2023-07-20T07:44:40;20.90;99.90
57833;DHT22;43667;53.036;6.740;2023-07-20T07:47:06;21.20;99.90
57833;DHT22;43667;53.036;6.740;2023-07-20T07:49:32;21.30;99.30
57833;DHT22;43667;53.036;6.740;2023-07-20T07:51:58;21.30;99.60
57833;DHT22;43667;53.036;6.740;2023-07-20T07:54:23;21.10;99.40
57833;DHT22;43667;53.036;6.740;2023-07-20T07:56:49;21.00;98.90
57833;DHT22;43667;53.036;6.740;2023-07-20T07:59:16;21.10;98.10
57833;DHT22;43667;53.036;6.740;2023-07-20T08:01:42;21.30;98.30
57833;DHT22;43667;53.036;6.740;2023-07-20T08:04:07;21.50;97.00
57833;DHT22;43667;53.036;6.740;2023-07-20T08:06:33;21.40;96.00
57833;DHT22;43667;53.036;6.740;2023-07-20T08:08:59;21.30;97.30
57833;DHT22;43667;53.036;6.740;2023-07-20T08:11:25;21.40;95.90
57833;DHT22;43667;53.036;6.740;2023-07-20T08:13:51;21.50;96.40
57833;DHT22;43667;53.036;6.740;2023-07-20T08:16:16;21.40;93.70
57833;DHT22;43667;53.036;6.740;2023-07-20T08:18:43;21.50;93.90
57833;DHT22;43667;53.036;6.740;2023-07-20T08:21:09;21.50;93.90
57833;DHT22;43667;53.036;6.740;2023-07-20T08:23:35;21.40;92.00
57833;DHT22;43667;53.036;6.740;2023-07-20T08:26:00;21.40;91.30
57833;DHT22;43667;53.036;6.740;2023-07-20T08:28:26;21.60;89.70
57833;DHT22;43667;53.036;6.740;2023-07-20T08:30:52;21.80;86.20
57833;DHT22;43667;53.036;6.740;2023-07-20T08:33:18;22.00;85.20
57833;DHT22;43667;53.036;6.740;2023-07-20T08:35:48;22.10;78.30
57833;DHT22;43667;53.036;6.740;2023-07-20T08:38:14;22.10;85.10
57833;DHT22;43667;53.036;6.740;2023-07-20T08:40:45;22.30;84.70
57833;DHT22;43667;53.036;6.740;2023-07-20T08:43:11;22.50;81.50
57833;DHT22;43667;53.036;6.740;2023-07-20T08:45:39;22.60;78.80
57833;DHT22;43667;53.036;6.740;2023-07-20T08:48:08;22.80;76.80
57833;DHT22;43667;53.036;6.740;2023-07-20T08:50:35;22.70;70.70
57833;DHT22;43667;53.036;6.740;2023-07-20T08:53:02;22.50;70.60
57833;DHT22;43667;53.036;6.740;2023-07-20T08:55:29;22.40;71.10
57833;DHT22;43667;53.036;6.740;2023-07-20T08:57:56;22.70;70.00
57833;DHT22;43667;53.036;6.740;2023-07-20T09:00:22;23.00;67.30
57833;DHT22;43667;53.036;6.740;2023-07-20T09:02:50;23.40;67.40
57833;DHT22;43667;53.036;6.740;2023-07-20T09:05:20;23.30;65.90
57833;DHT22;43667;53.036;6.740;2023-07-20T09:07:45;23.00;65.50
57833;DHT22;43667;53.036;6.740;2023-07-20T09:10:11;22.80;65.50
57833;DHT22;43667;53.036;6.740;2023-07-20T09:12:39;22.60;67.20
57833;DHT22;43667;53.036;6.740;2023-07-20T09:15:06;22.40;67.90
57833;DHT22;43667;53.036;6.740;2023-07-20T09:17:32;22.40;69.50
57833;DHT22;43667;53.036;6.740;2023-07-20T09:19:58;22.30;67.10
57833;DHT22;43667;53.036;6.740;2023-07-20T09:22:31;22.20;70.00
57833;DHT22;43667;53.036;6.740;2023-07-20T09:24:58;22.10;69.80
57833;DHT22;43667;53.036;6.740;2023-07-20T09:27:44;22.00;75.10
57833;DHT22;43667;53.036;6.740;2023-07-20T09:30:10;21.90;79.50
57833;DHT22;43667;53.036;6.740;2023-07-20T09:32:49;22.00;82.50
57833;DHT22;43667;53.036;6.740;2023-07-20T09:35:20;22.20;79.90
57833;DHT22;43667;53.036;6.740;2023-07-20T09:37:51;22.50;78.00
57833;DHT22;43667;53.036;6.740;2023-07-20T09:40:18;22.70;71.90
57833;DHT22;43667;53.036;6.740;2023-07-20T09:42:43;23.00;70.20
57833;DHT22;43667;53.036;6.740;2023-07-20T09:45:09;23.30;67.60
57833;DHT22;43667;53.036;6.740;2023-07-20T09:47:39;23.50;65.20
57833;DHT22;43667;53.036;6.740;2023-07-20T09:50:06;23.70;64.30
57833;DHT22;43667;53.036;6.740;2023-07-20T09:52:38;24.10;63.90
57833;DHT22;43667;53.036;6.740;2023-07-20T09:55:08;24.30;59.70
57833;DHT22;43667;53.036;6.740;2023-07-20T09:57:35;24.50;57.40
57833;DHT22;43667;53.036;6.740;2023-07-20T10:00:05;24.50;57.40
57833;DHT22;43667;53.036;6.740;2023-07-20T10:02:41;24.80;57.50
57833;DHT22;43667;53.036;6.740;2023-07-20T10:05:08;24.70;57.70
57833;DHT22;43667;53.036;6.740;2023-07-20T10:07:40;24.40;57.80
57833;DHT22;43667;53.036;6.740;2023-07-20T10:10:07;24.10;59.60
57833;DHT22;43667;53.036;6.740;2023-07-20T10:12:37;24.00;59.70
57833;DHT22;43667;53.036;6.740;2023-07-20T10:15:34;23.80;58.80
57833;DHT22;43667;53.036;6.740;2023-07-20T10:18:09;23.70;60.20
57833;DHT22;43667;53.036;6.740;2023-07-20T10:20:39;23.60;62.10
57833;DHT22;43667;53.036;6.740;2023-07-20T10:23:06;23.60;60.70
57833;DHT22;43667;53.036;6.740;2023-07-20T10:25:33;23.70;60.40
57833;DHT22;43667;53.036;6.740;2023-07-20T10:28:05;23.40;60.20
57833;DHT22;43667;53.036;6.740;2023-07-20T10:30:32;23.20;61.50
57833;DHT22;43667;53.036;6.740;2023-07-20T10:32:59;23.50;65.40
57833;DHT22;43667;53.036;6.740;2023-07-20T10:35:28;24.10;67.70
57833;DHT22;43667;53.036;6.740;2023-07-20T10:37:59;24.10;71.00
57833;DHT22;43667;53.036;6.740;2023-07-20T10:40:59;24.30;74.20
57833;DHT22;43667;53.036;6.740;2023-07-20T10:43:19;24.60;70.80
57833;DHT22;43667;53.036;6.740;2023-07-20T10:45:52;24.80;71.30
57833;DHT22;43667;53.036;6.740;2023-07-20T10:48:21;24.60;73.50
57833;DHT22;43667;53.036;6.740;2023-07-20T10:51:11;25.00;55.30
57833;DHT22;43667;53.036;6.740;2023-07-20T10:53:37;25.10;55.10
57833;DHT22;43667;53.036;6.740;2023-07-20T10:56:12;25.20;55.00
57833;DHT22;43667;53.036;6.740;2023-07-20T10:58:39;24.90;53.30
57833;DHT22;43667;53.036;6.740;2023-07-20T11:01:05;24.80;54.60
57833;DHT22;43667;53.036;6.740;2023-07-20T11:03:38;24.70;55.00
57833;DHT22;43667;53.036;6.740;2023-07-20T11:08:55;24.50;54.60
57833;DHT22;43667;53.036;6.740;2023-07-20T11:11:29;24.70;55.00
57833;DHT22;43667;53.036;6.740;2023-07-20T11:14:03;24.40;54.40
57833;DHT22;43667;53.036;6.740;2023-07-20T11:16:37;24.50;54.70
57833;DHT22;43667;53.036;6.740;2023-07-20T11:19:04;24.80;54.30
57833;DHT22;43667;53.036;6.740;2023-07-20T11:21:36;25.10;53.90
57833;DHT22;43667;53.036;6.740;2023-07-20T11:24:06;25.60;52.10
57833;DHT22;43667;53.036;6.740;2023-07-20T11:26:43;25.70;51.70
57833;DHT22;43667;53.036;6.740;2023-07-20T11:29:09;25.40;52.00
57833;DHT22;43667;53.036;6.740;2023-07-20T11:31:39;25.20;53.50
57833;DHT22;43667;53.036;6.740;2023-07-20T11:34:05;25.10;53.90
57833;DHT22;43667;53.036;6.740;2023-07-20T11:36:31;25.00;55.20
57833;DHT22;43667;53.036;6.740;2023-07-20T11:38:58;24.80;54.70
57833;DHT22;43667;53.036;6.740;2023-07-20T11:41:25;24.80;55.30
57833;DHT22;43667;53.036;6.740;2023-07-20T11:43:52;24.80;58.10
57833;DHT22;43667;53.036;6.740;2023-07-20T11:46:19;25.20;57.20
57833;DHT22;43667;53.036;6.740;2023-07-20T11:48:45;25.20;56.50
57833;DHT22;43667;53.036;6.740;2023-07-20T11:51:15;25.10;55.90
57833;DHT22;43667;53.036;6.740;2023-07-20T11:53:42;24.80;53.80
57833;DHT22;43667;53.036;6.740;2023-07-20T11:56:08;24.80;53.80
57833;DHT22;43667;53.036;6.740;2023-07-20T11:58:34;24.60;54.40
57833;DHT22;43667;53.036;6.740;2023-07-20T12:00:59;24.50;53.50
57833;DHT22;43667;53.036;6.740;2023-07-20T12:03:25;24.30;53.40
57833;DHT22;43667;53.036;6.740;2023-07-20T12:05:51;24.20;54.10
57833;DHT22;43667;53.036;6.740;2023-07-20T12:08:16;24.20;55.10
57833;DHT22;43667;53.036;6.740;2023-07-20T12:10:42;24.30;54.50
57833;DHT22;43667;53.036;6.740;2023-07-20T12:13:10;24.50;54.70
57833;DHT22;43667;53.036;6.740;2023-07-20T12:15:37;24.80;54.40
57833;DHT22;43667;53.036;6.740;2023-07-20T12:18:03;25.20;52.50
57833;DHT22;43667;53.036;6.740;2023-07-20T12:20:30;25.40;51.50
57833;DHT22;43667;53.036;6.740;2023-07-20T12:23:01;25.70;51.10
57833;DHT22;43667;53.036;6.740;2023-07-20T12:25:45;26.00;49.90
57833;DHT22;43667;53.036;6.740;2023-07-20T12:28:16;26.20;50.30
57833;DHT22;43667;53.036;6.740;2023-07-20T12:30:44;26.30;47.80
57833;DHT22;43667;53.036;6.740;2023-07-20T12:33:09;26.30;48.10
57833;DHT22;43667;53.036;6.740;2023-07-20T12:35:35;26.10;48.30
57833;DHT22;43667;53.036;6.740;2023-07-20T12:38:01;25.90;48.40
57833;DHT22;43667;53.036;6.740;2023-07-20T12:40:27;25.60;49.10
57833;DHT22;43667;53.036;6.740;2023-07-20T12:42:52;25.40;49.50
57833;DHT22;43667;53.036;6.740;2023-07-20T12:45:18;25.10;50.80
57833;DHT22;43667;53.036;6.740;2023-07-20T12:47:44;24.70;51.80
57833;DHT22;43667;53.036;6.740;2023-07-20T12:50:12;24.70;52.80
57833;DHT22;43667;53.036;6.740;2023-07-20T12:52:39;24.40;53.20
57833;DHT22;43667;53.036;6.740;2023-07-20T12:55:06;24.20;53.30
57833;DHT22;43667;53.036;6.740;2023-07-20T12:57:36;23.90;54.60
57833;DHT22;43667;53.036;6.740;2023-07-20T13:00:03;23.80;55.90
57833;DHT22;43667;53.036;6.740;2023-07-20T13:02:33;23.80;56.40
57833;DHT22;43667;53.036;6.740;2023-07-20T13:04:59;24.00;55.90
57833;DHT22;43667;53.036;6.740;2023-07-20T13:07:36;24.10;55.10
57833;DHT22;43667;53.036;6.740;2023-07-20T13:10:03;24.20;54.30
57833;DHT22;43667;53.036;6.740;2023-07-20T13:12:31;24.30;54.40
57833;DHT22;43667;53.036;6.740;2023-07-20T13:14:57;24.50;52.90
57833;DHT22;43667;53.036;6.740;2023-07-20T13:17:26;24.80;52.40
57833;DHT22;43667;53.036;6.740;2023-07-20T13:19:52;25.10;52.20
57833;DHT22;43667;53.036;6.740;2023-07-20T13:22:18;25.40;51.90
57833;DHT22;43667;53.036;6.740;2023-07-20T13:24:45;25.30;51.40
57833;DHT22;43667;53.036;6.740;2023-07-20T13:27:20;25.20;51.90
57833;DHT22;43667;53.036;6.740;2023-07-20T13:29:45;25.10;51.80
57833;DHT22;43667;53.036;6.740;2023-07-20T13:32:14;25.00;52.60
57833;DHT22;43667;53.036;6.740;2023-07-20T13:34:41;24.90;56.40
57833;DHT22;43667;53.036;6.740;2023-07-20T13:37:08;24.80;68.20
57833;DHT22;43667;53.036;6.740;2023-07-20T13:39:34;24.50;76.00
57833;DHT22;43667;53.036;6.740;2023-07-20T13:42:00;24.70;79.90
57833;DHT22;43667;53.036;6.740;2023-07-20T13:44:29;24.20;85.70
57833;DHT22;43667;53.036;6.740;2023-07-20T13:46:54;24.10;68.50
57833;DHT22;43667;53.036;6.740;2023-07-20T13:49:20;24.30;69.90
57833;DHT22;43667;53.036;6.740;2023-07-20T13:51:46;23.90;69.40
57833;DHT22;43667;53.036;6.740;2023-07-20T13:54:12;23.90;75.10
57833;DHT22;43667;53.036;6.740;2023-07-20T13:56:38;23.80;76.20
57833;DHT22;43667;53.036;6.740;2023-07-20T13:59:03;23.80;80.00
57833;DHT22;43667;53.036;6.740;2023-07-20T14:01:29;23.80;80.20
57833;DHT22;43667;53.036;6.740;2023-07-20T14:03:56;23.60;84.00
57833;DHT22;43667;53.036;6.740;2023-07-20T14:06:22;23.50;88.00
57833;DHT22;43667;53.036;6.740;2023-07-20T14:08:48;23.70;90.50
57833;DHT22;43667;53.036;6.740;2023-07-20T14:11:15;23.70;87.20
57833;DHT22;43667;53.036;6.740;2023-07-20T14:13:40;23.80;91.90
57833;DHT22;43667;53.036;6.740;2023-07-20T14:16:06;24.00;92.90
57833;DHT22;43667;53.036;6.740;2023-07-20T14:18:31;24.00;91.80
57833;DHT22;43667;53.036;6.740;2023-07-20T14:20:57;24.30;91.80
57833;DHT22;43667;53.036;6.740;2023-07-20T14:23:23;24.30;92.60
57833;DHT22;43667;53.036;6.740;2023-07-20T14:25:48;24.60;92.50
57833;DHT22;43667;53.036;6.740;2023-07-20T14:28:14;25.00;92.70
57833;DHT22;43667;53.036;6.740;2023-07-20T14:30:40;25.10;92.90
57833;DHT22;43667;53.036;6.740;2023-07-20T14:33:06;25.00;65.90
57833;DHT22;43667;53.036;6.740;2023-07-20T14:35:32;24.80;65.90
57833;DHT22;43667;53.036;6.740;2023-07-20T14:37:58;24.80;62.10
57833;DHT22;43667;53.036;6.740;2023-07-20T14:40:23;24.70;55.80
57833;DHT22;43667;53.036;6.740;2023-07-20T14:42:49;24.30;58.50
57833;DHT22;43667;53.036;6.740;2023-07-20T14:45:15;24.20;56.40
57833;DHT22;43667;53.036;6.740;2023-07-20T14:47:40;24.00;56.50
57833;DHT22;43667;53.036;6.740;2023-07-20T14:50:06;24.10;60.20
57833;DHT22;43667;53.036;6.740;2023-07-20T14:52:32;24.30;57.00
57833;DHT22;43667;53.036;6.740;2023-07-20T14:54:57;24.80;55.80
57833;DHT22;43667;53.036;6.740;2023-07-20T14:57:23;25.20;54.50
57833;DHT22;43667;53.036;6.740;2023-07-20T14:59:52;25.60;53.60
57833;DHT22;43667;53.036;6.740;2023-07-20T15:02:18;25.60;51.90
57833;DHT22;43667;53.036;6.740;2023-07-20T15:04:48;25.30;51.50
57833;DHT22;43667;53.036;6.740;2023-07-20T15:07:15;24.90;53.60
57833;DHT22;43667;53.036;6.740;2023-07-20T15:09:41;24.70;54.60
57833;DHT22;43667;53.036;6.740;2023-07-20T15:12:07;24.60;54.40
57833;DHT22;43667;53.036;6.740;2023-07-20T15:14:33;24.40;53.90
57833;DHT22;43667;53.036;6.740;2023-07-20T15:16:59;24.30;54.20
57833;DHT22;43667;53.036;6.740;2023-07-20T15:19:24;24.00;55.00
57833;DHT22;43667;53.036;6.740;2023-07-20T15:21:50;23.70;56.00
57833;DHT22;43667;53.036;6.740;2023-07-20T15:24:15;23.50;57.00
57833;DHT22;43667;53.036;6.740;2023-07-20T15:26:41;23.40;57.60
57833;DHT22;43667;53.036;6.740;2023-07-20T15:29:07;23.50;59.10
57833;DHT22;43667;53.036;6.740;2023-07-20T15:31:32;23.50;58.90
57833;DHT22;43667;53.036;6.740;2023-07-20T15:33:58;23.50;60.30
57833;DHT22;43667;53.036;6.740;2023-07-20T15:36:24;23.50;59.30
57833;DHT22;43667;53.036;6.740;2023-07-20T15:38:49;23.40;59.60
57833;DHT22;43667;53.036;6.740;2023-07-20T15:41:15;23.40;59.80
57833;DHT22;43667;53.036;6.740;2023-07-20T15:43:41;23.50;59.70
57833;DHT22;43667;53.036;6.740;2023-07-20T15:49:02;23.60;60.30
57833;DHT22;43667;53.036;6.740;2023-07-20T15:51:27;24.00;58.50
57833;DHT22;43667;53.036;6.740;2023-07-20T15:53:53;24.70;57.40
57833;DHT22;43667;53.036;6.740;2023-07-20T15:56:18;25.40;53.70
57833;DHT22;43667;53.036;6.740;2023-07-20T15:58:44;25.50;52.10
57833;DHT22;43667;53.036;6.740;2023-07-20T16:01:09;25.40;52.10
57833;DHT22;43667;53.036;6.740;2023-07-20T16:03:35;25.00;52.40
57833;DHT22;43667;53.036;6.740;2023-07-20T16:06:01;24.80;54.10
57833;DHT22;43667;53.036;6.740;2023-07-20T16:08:29;24.40;55.00
57833;DHT22;43667;53.036;6.740;2023-07-20T16:10:55;24.20;55.30
57833;DHT22;43667;53.036;6.740;2023-07-20T16:13:23;24.00;55.60
57833;DHT22;43667;53.036;6.740;2023-07-20T16:15:52;23.80;56.70
57833;DHT22;43667;53.036;6.740;2023-07-20T16:18:18;23.70;57.70
57833;DHT22;43667;53.036;6.740;2023-07-20T16:20:43;23.80;59.00
57833;DHT22;43667;53.036;6.740;2023-07-20T16:23:10;24.00;58.10
57833;DHT22;43667;53.036;6.740;2023-07-20T16:25:37;24.40;58.50
57833;DHT22;43667;53.036;6.740;2023-07-20T16:28:03;24.80;55.90
57833;DHT22;43667;53.036;6.740;2023-07-20T16:30:29;25.10;54.10
57833;DHT22;43667;53.036;6.740;2023-07-20T16:32:55;25.20;53.60
57833;DHT22;43667;53.036;6.740;2023-07-20T16:35:21;25.60;53.70
57833;DHT22;43667;53.036;6.740;2023-07-20T16:37:46;26.10;53.20
57833;DHT22;43667;53.036;6.740;2023-07-20T16:40:12;26.70;51.70
57833;DHT22;43667;53.036;6.740;2023-07-20T16:42:38;27.20;49.20
57833;DHT22;43667;53.036;6.740;2023-07-20T16:45:04;27.80;47.50
57833;DHT22;43667;53.036;6.740;2023-07-20T16:47:30;28.40;46.00
57833;DHT22;43667;53.036;6.740;2023-07-20T16:49:56;28.80;45.50
57833;DHT22;43667;53.036;6.740;2023-07-20T16:52:21;29.20;45.10
57833;DHT22;43667;53.036;6.740;2023-07-20T16:54:47;29.60;44.60
57833;DHT22;43667;53.036;6.740;2023-07-20T16:57:13;29.90;43.90
57833;DHT22;43667;53.036;6.740;2023-07-20T16:59:38;29.80;43.20
57833;DHT22;43667;53.036;6.740;2023-07-20T17:02:04;29.70;42.90
57833;DHT22;43667;53.036;6.740;2023-07-20T17:04:30;29.50;43.10
57833;DHT22;43667;53.036;6.740;2023-07-20T17:06:55;29.30;43.30
57833;DHT22;43667;53.036;6.740;2023-07-20T17:09:23;29.40;43.90